Sault Sainte Marie, MI

1:19 AM EST on February 27, 2015 (GMT -0500)
Sault Ste Marie Municipal / Sanderson Field | Change Station
CLOSE
Current Station
Airport
Location: Sault Ste Marie,
Elevation: 715 ft
Nearby Weather Stations

Elev 715 ft 46.48 °N, 84.36 °W | Updated 24 minutes ago

Mostly Cloudy
Mostly Cloudy
-2 °F
Feels Like -12 °F
N
5
Wind Variable Wind from WSW

Today
High -- | Low -- °F
--% Chance of Precip.
Yesterday
High -- | Low -- °F
Precip. -- in
7:20 AM 6:20 PM
Waxing Gibbous, 66% visible
Pressure 30.36 in
Visibility 3.0 miles
Clouds Few 1500 ft
Scattered Clouds 2000 ft
Overcast 2900 ft
Windchill -12 °F
Dew Point -7 °F
Humidity 79%
Rainfall 0.00 in
Snow Depth Not available.
UV 0 out of 12
Pollen .30 out of 12
Air Quality Not available.
Flu Activity Not available.
METAR KANJ 270555Z AUTO 25004KT 3SM -SN FEW015 SCT020 OVC029 M19/M22 A3030 RMK AO2 SLP280 P0000 60000 T11891217 11178 21200 51003

More Conditions Fewer Conditions

Pressure 30.36 in
Visibility 3.0 miles
Clouds Few 1500 ft
Scattered Clouds 2000 ft
Overcast 2900 ft
Windchill -12 °F
Dew Point -7 °F
Humidity 79%
Rainfall 0.00 in
Snow Depth Not available.
UV 0 out of 12
Pollen .30 out of 12
Air Quality Not available.
Flu Activity Not available.
METAR KANJ 270555Z AUTO 25004KT 3SM -SN FEW015 SCT020 OVC029 M19/M22 A3030 RMK AO2 SLP280 P0000 60000 T11891217 11178 21200 51003

More Conditions Fewer Conditions

Nowcast | as of 1:00 am EST on February 27, 2015

At 2 am...clear. Chance of snow showers. Temperature 9 below. Light winds. At 4 am...clear. Chance of snow showers. Temperature 12 below. Light winds. At 6 am...clear. Chance of snow showers. Temperature 16 below. Light winds. At 8 am...clear. Temperature 7 below. West winds 5 mph.

×

10-Day Weather Forecast

Almanac

Astronomy

Feb. 27, 2015 Rise Set
Actual Time
Civil Twilight
Nautical Twilight
Astronomical Twilight
Moon
Length of Visible Light
Length of Day
Tomorrow will be .
, % of the Moon is Illuminated

Today's Extremes

State Highs State Lows

Community

WunderPhotos

Upload Photos

1,800,643 photos uploaded!

WunderBlogs® & News

Nearby

Air Quality

  Air Quality AQ Index Pollutant
Not available.

Snow Depth

Station Depth Elevation

Earthquake Activity

City Distance Mag. Time & Date
Minimum magnitude displayed is 2.5.

Coastal Water Temperatures

Place Temperature

Nearby Weather Stations